Time;durP1;ratioP1;P1;durP2;ratioP2;P2;SDS_P1;SDS_P2;PMS_P1;PMS_P2;Temp;Humidity;BMP_temperature;BMP_pressure;BME280_temperature;BME280_humidity;BME280_pressure;Samples;Min_cycle;Max_cycle;Signal;HPM_P1;HPM_P2
2023/08/20 00:03:26;;;;;;;26.42;16.27;;;;;;;24.24;100.00;100984.75;5168624;55;1145078;-66
2023/08/20 00:08:32;;;;;;;28.45;16.65;;;;;;;24.29;100.00;100976.90;5189235;55;1144883;-66
2023/08/20 00:13:37;;;;;;;59.90;26.50;;;;;;;24.22;100.00;100980.86;5201113;55;1145035;-65
2023/08/20 00:18:43;;;;;;;60.73;27.23;;;;;;;24.05;100.00;100985.72;5169445;55;1145165;-66
2023/08/20 00:23:49;;;;;;;85.30;34.47;;;;;;;23.97;100.00;100987.73;5132782;56;1144901;-66
2023/08/20 00:28:55;;;;;;;83.12;33.25;;;;;;;23.88;100.00;100985.67;5169106;54;1145173;-67
2023/08/20 00:34:01;;;;;;;84.62;32.93;;;;;;;23.86;100.00;100982.32;5118231;55;1144992;-66
2023/08/20 00:39:07;;;;;;;82.25;32.73;;;;;;;23.84;100.00;100983.02;5169063;55;1145038;-66
2023/08/20 00:44:13;;;;;;;54.42;25.52;;;;;;;23.77;100.00;100970.83;5218508;54;1144985;-66
2023/08/20 00:49:18;;;;;;;50.67;22.80;;;;;;;23.73;100.00;100964.65;5169097;55;1144992;-66
2023/08/20 00:54:25;;;;;;;46.88;22.80;;;;;;;23.69;100.00;100971.45;5169162;55;1144744;-65
2023/08/20 00:59:33;;;;;;;36.85;17.65;;;;;;;23.48;100.00;100974.47;5172645;55;1265641;-67
2023/08/20 01:04:39;;;;;;;24.15;14.47;;;;;;;23.08;100.00;100979.91;5164285;55;1145049;-65
2023/08/20 01:09:52;;;;;;;34.53;17.82;;;;;;;22.75;100.00;100978.66;5173378;55;1145229;-66
2023/08/20 01:14:58;;;;;;;42.00;20.43;;;;;;;22.88;100.00;100980.20;5252458;54;1145310;-68
2023/08/20 01:20:05;;;;;;;38.40;21.73;;;;;;;23.00;100.00;100980.04;5277243;54;1145003;-66
2023/08/20 01:25:35;;;;;;;36.53;19.85;;;;;;;23.07;100.00;100974.19;5257310;54;1145037;-65
2023/08/20 01:30:41;;;;;;;47.13;21.23;;;;;;;23.04;100.00;100980.50;5257231;54;1144982;-64
2023/08/20 01:35:47;;;;;;;50.98;22.45;;;;;;;23.02;100.00;100974.45;5278675;54;1145125;-66
2023/08/20 01:40:56;;;;;;;42.93;20.20;;;;;;;23.11;100.00;100979.55;5190066;55;1144948;-66
2023/08/20 01:46:01;;;;;;;44.25;20.15;;;;;;;23.16;100.00;100988.42;5112372;56;1144983;-65
2023/08/20 01:51:08;;;;;;;28.90;18.02;;;;;;;23.21;100.00;100981.96;5112938;56;1145274;-65
2023/08/20 01:56:15;;;;;;;26.27;16.97;;;;;;;23.09;100.00;100988.34;5133243;56;1144893;-65
2023/08/20 02:01:21;;;;;;;27.73;17.73;;;;;;;22.73;100.00;100988.78;5113024;56;1144891;-65
2023/08/20 02:06:27;;;;;;;23.35;15.50;;;;;;;22.68;100.00;100997.42;5113240;55;1144947;-65
2023/08/20 02:11:35;;;;;;;17.77;11.78;;;;;;;22.75;100.00;101009.16;5133131;56;1145058;-66
2023/08/20 02:16:40;;;;;;;18.37;12.58;;;;;;;22.83;100.00;101012.80;5112308;56;1145099;-65
2023/08/20 02:21:46;;;;;;;22.03;15.10;;;;;;;22.92;100.00;101011.15;5112472;56;1145053;-66
2023/08/20 02:26:52;;;;;;;23.10;14.40;;;;;;;22.93;100.00;101009.28;5133262;56;1145176;-66
2023/08/20 02:31:57;;;;;;;25.52;15.05;;;;;;;22.89;100.00;101016.11;5172399;55;1144915;-65
2023/08/20 02:37:03;;;;;;;24.60;14.17;;;;;;;22.84;100.00;101018.52;5182906;55;1147442;-66
2023/08/20 02:42:08;;;;;;;28.25;15.48;;;;;;;22.82;100.00;101020.05;5132238;56;1144973;-65
2023/08/20 02:47:14;;;;;;;28.25;17.45;;;;;;;22.84;100.00;101014.47;5112823;56;1145197;-66
2023/08/20 02:52:20;;;;;;;25.57;14.78;;;;;;;22.77;100.00;101017.90;5113098;56;1145063;-66
2023/08/20 02:57:26;;;;;;;21.65;13.70;;;;;;;22.73;100.00;101013.89;5133170;56;1145006;-66
2023/08/20 03:02:32;;;;;;;27.80;12.95;;;;;;;22.59;100.00;100999.90;5112927;55;1144983;-65
2023/08/20 03:07:37;;;;;;;17.62;12.37;;;;;;;22.59;100.00;101007.98;5112893;55;1145105;-66
2023/08/20 03:12:43;;;;;;;25.65;13.68;;;;;;;22.62;100.00;101003.55;5215873;55;1144890;-66
2023/08/20 03:17:48;;;;;;;19.15;13.40;;;;;;;22.64;100.00;100996.63;5256487;54;1145147;-66
2023/08/20 03:22:54;;;;;;;22.32;13.25;;;;;;;22.64;100.00;100997.46;5253339;54;1144936;-66
2023/08/20 03:27:59;;;;;;;31.90;15.95;;;;;;;22.51;100.00;100985.66;5257235;54;1145282;-65
2023/08/20 03:33:05;;;;;;;47.27;22.75;;;;;;;22.29;100.00;100982.86;5128273;55;1144835;-66
2023/08/20 03:38:12;;;;;;;54.75;25.02;;;;;;;22.21;100.00;100982.93;5168467;55;1145015;-66
2023/08/20 03:43:18;;;;;;;57.38;26.15;;;;;;;22.17;100.00;100984.81;5233451;55;1144990;-65
2023/08/20 03:48:23;;;;;;;49.93;23.27;;;;;;;22.09;100.00;100989.78;5231579;54;1145129;-67
2023/08/20 03:53:30;;;;;;;34.65;17.98;;;;;;;22.03;100.00;100985.95;5064371;56;1144816;-66
2023/08/20 03:58:35;;;;;;;28.40;14.40;;;;;;;;;;5209504;55;1152256;-66
2023/08/20 04:03:40;;;;;;;32.20;16.02;;;;;;;21.98;100.00;101011.23;5311535;54;822048;-66
2023/08/20 04:08:46;;;;;;;25.80;16.32;;;;;;;22.03;100.00;101010.70;5113209;56;1143037;-66
2023/08/20 04:13:51;;;;;;;22.77;13.93;;;;;;;21.99;100.00;101010.25;5257406;54;1145134;-66
2023/08/20 04:18:58;;;;;;;18.38;10.64;;;;;;;22.02;100.00;101024.69;5242994;54;1144989;-67
2023/08/20 04:24:04;;;;;;;13.05;10.43;;;;;;;22.09;100.00;101018.08;5109281;56;1144879;-66
2023/08/20 04:29:10;;;;;;;14.90;10.35;;;;;;;22.17;100.00;101020.68;5080187;56;1144966;-66
2023/08/20 04:34:16;;;;;;;24.75;15.80;;;;;;;22.19;100.00;101030.77;5232984;54;1145030;-66
2023/08/20 04:39:23;;;;;;;27.58;14.73;;;;;;;21.99;100.00;101033.63;5275809;54;1145159;-66
2023/08/20 04:44:31;;;;;;;22.77;10.70;;;;;;;21.95;100.00;101029.61;5258301;54;1145100;-65
2023/08/20 04:49:36;;;;;;;16.77;12.25;;;;;;;21.92;100.00;101040.23;5256931;54;1144843;-66
2023/08/20 04:54:42;;;;;;;23.53;14.67;;;;;;;21.97;100.00;101041.89;5278496;54;1144773;-66
2023/08/20 04:59:48;;;;;;;22.90;15.45;;;;;;;22.07;100.00;101047.88;5113359;56;1145109;-65
2023/08/20 05:04:55;;;;;;;22.32;14.53;;;;;;;22.14;100.00;101049.36;5255337;54;1145165;-66
2023/08/20 05:10:02;;;;;;;19.42;12.15;;;;;;;22.15;100.00;101054.23;5256900;55;1144895;-65
2023/08/20 05:15:08;;;;;;;16.45;12.93;;;;;;;22.22;100.00;101048.44;5278523;54;1144944;-65
2023/08/20 05:20:14;;;;;;;18.70;13.68;;;;;;;22.29;100.00;101043.50;5201976;54;1144988;-66
2023/08/20 05:25:20;;;;;;;26.35;15.63;;;;;;;22.40;100.00;101044.91;5167976;55;1144978;-66
2023/08/20 05:30:27;;;;;;;23.52;15.28;;;;;;;22.46;100.00;101052.23;5189358;56;1145208;-65
2023/08/20 05:35:34;;;;;;;21.73;15.05;;;;;;;22.67;100.00;101052.38;5231164;54;1144838;-67
2023/08/20 05:40:40;;;;;;;22.75;13.85;;;;;;;22.91;100.00;101045.92;5257891;54;1145404;-66
2023/08/20 05:45:45;;;;;;;17.95;13.55;;;;;;;23.22;100.00;101047.56;5277839;54;1144869;-66
2023/08/20 05:50:53;;;;;;;17.80;12.75;;;;;;;23.51;100.00;101050.23;5198927;55;1145108;-65
2023/08/20 05:55:59;;;;;;;15.93;12.55;;;;;;;23.84;100.00;101054.61;5240558;54;1145074;-65
2023/08/20 06:01:05;;;;;;;16.73;12.23;;;;;;;24.15;100.00;101064.58;5107992;56;1144848;-65
2023/08/20 06:06:10;;;;;;;16.82;11.15;;;;;;;24.39;100.00;101066.08;5277610;54;1144972;-65
2023/08/20 06:11:16;;;;;;;12.43;11.22;;;;;;;24.71;100.00;101062.47;5099102;56;1144860;-66
2023/08/20 06:16:22;;;;;;;12.60;11.25;;;;;;;24.80;100.00;101065.32;5257696;54;1145018;-65
2023/08/20 06:21:27;;;;;;;11.68;10.58;;;;;;;24.88;100.00;101066.02;5264875;54;1145091;-66
2023/08/20 06:26:33;;;;;;;17.75;11.75;;;;;;;24.92;100.00;101068.30;5237627;54;1144906;-66
2023/08/20 06:31:39;;;;;;;26.00;10.68;;;;;;;25.00;100.00;101061.42;5234648;54;1144896;-66
2023/08/20 06:36:44;;;;;;;15.85;11.12;;;;;;;25.16;100.00;101058.38;5235726;54;1144991;-66
2023/08/20 06:41:50;;;;;;;15.03;11.37;;;;;;;25.42;100.00;101065.77;5215883;54;1145240;-66
2023/08/20 06:46:59;;;;;;;13.53;11.12;;;;;;;25.51;100.00;101064.02;5103776;56;1144751;-65
2023/08/20 06:52:05;;;;;;;13.95;10.70;;;;;;;25.54;100.00;101069.03;5164183;55;1145170;-67
2023/08/20 06:57:10;;;;;;;10.90;9.78;;;;;;;25.57;100.00;101079.98;5214123;54;1144899;-67
2023/08/20 07:02:16;;;;;;;16.02;9.45;;;;;;;25.64;100.00;101087.66;5233354;54;1142867;-66
2023/08/20 07:07:22;;;;;;;13.85;9.30;;;;;;;25.69;100.00;101096.52;5257666;54;1142818;-66
2023/08/20 07:12:27;;;;;;;9.93;9.10;;;;;;;25.83;100.00;101094.98;5120429;56;1143146;-66
2023/08/20 07:17:33;;;;;;;8.20;7.47;;;;;;;25.93;100.00;101095.97;5205867;55;1141034;-66
2023/08/20 07:22:38;;;;;;;8.30;7.50;;;;;;;26.04;100.00;101094.52;5169072;55;1140872;-68
2023/08/20 07:27:44;;;;;;;8.28;7.55;;;;;;;26.19;100.00;101096.52;5188792;55;1140771;-67
2023/08/20 07:32:50;;;;;;;8.25;7.42;;;;;;;26.28;100.00;101100.69;5182924;55;1140867;-67
2023/08/20 07:37:55;;;;;;;8.73;7.37;;;;;;;26.34;100.00;101099.06;5258049;54;1140977;-68
2023/08/20 07:43:02;;;;;;;14.80;10.60;;;;;;;26.41;100.00;101102.63;5258188;54;1140986;-67
2023/08/20 07:48:07;;;;;;;8.28;7.60;;;;;;;26.45;100.00;101105.21;5106529;56;1145112;-67
2023/08/20 07:53:13;;;;;;;8.35;7.55;;;;;;;26.46;100.00;101121.80;5248911;54;1140821;-66
2023/08/20 07:58:19;;;;;;;8.43;7.72;;;;;;;26.47;100.00;101117.53;5168893;55;1140942;-66
2023/08/20 08:03:29;;;;;;;8.45;7.55;;;;;;;26.55;100.00;101119.22;5190351;55;1141016;-66
2023/08/20 08:08:35;;;;;;;10.55;8.20;;;;;;;26.57;100.00;101136.96;5214458;54;1140798;-66
2023/08/20 08:13:41;;;;;;;13.55;8.33;;;;;;;26.66;100.00;101121.81;5247231;54;1142706;-66
2023/08/20 08:18:46;;;;;;;8.85;7.95;;;;;;;26.81;100.00;101129.20;5276589;54;1143104;-66
2023/08/20 08:23:52;;;;;;;13.50;8.90;;;;;;;26.86;100.00;101119.40;5205312;55;1140822;-67
2023/08/20 08:28:58;;;;;;;10.80;8.78;;;;;;;26.83;100.00;101119.81;5169129;55;1142658;-66
2023/08/20 08:34:04;;;;;;;10.40;8.36;;;;;;;26.90;100.00;101114.36;5234466;55;1142972;-66
2023/08/20 08:39:09;;;;;;;9.83;8.83;;;;;;;26.97;100.00;101107.08;5270127;54;1143210;-66
2023/08/20 08:44:15;;;;;;;16.75;8.53;;;;;;;26.99;100.00;101120.45;5258658;54;1140707;-66
2023/08/20 08:49:21;;;;;;;9.50;8.53;;;;;;;27.11;100.00;101111.44;5257321;54;1143212;-65
2023/08/20 08:54:28;;;;;;;9.23;8.28;;;;;;;27.33;100.00;101111.17;5277317;54;1141053;-67
2023/08/20 08:59:34;;;;;;;9.98;9.08;;;;;;;27.51;100.00;101111.28;5258393;54;1140749;-67
2023/08/20 09:04:41;;;;;;;8.73;7.37;;;;;;;27.51;100.00;101110.75;5213704;55;1140986;-67
2023/08/20 09:09:49;;;;;;;9.77;8.00;;;;;;;27.60;100.00;101114.95;5247544;54;1140827;-66
2023/08/20 09:14:57;;;;;;;11.43;8.18;;;;;;;27.68;100.00;101115.73;5257310;54;1140625;-67
2023/08/20 09:20:02;;;;;;;10.55;8.13;;;;;;;27.70;100.00;101114.99;5256968;54;1143017;-66
2023/08/20 09:25:08;;;;;;;11.83;9.03;;;;;;;27.76;100.00;101121.77;5258195;54;1142978;-67
2023/08/20 09:30:20;;;;;;;9.75;8.95;;;;;;;27.82;100.00;101126.84;5228161;54;1142618;-66
2023/08/20 09:35:25;;;;;;;10.00;7.92;;;;;;;27.92;100.00;101128.06;5209959;55;1141060;-66
2023/08/20 09:40:32;;;;;;;9.90;8.98;;;;;;;28.04;100.00;101134.16;5223229;55;1142947;-67
2023/08/20 09:45:40;;;;;;;9.95;8.95;;;;;;;28.06;100.00;101134.25;5239498;54;1140957;-67
2023/08/20 09:50:48;;;;;;;10.23;9.23;;;;;;;28.12;100.00;101132.52;5168367;54;1140840;-67
2023/08/20 09:55:57;;;;;;;9.23;8.10;;;;;;;28.23;100.00;101131.34;5169238;55;1142956;-67
2023/08/20 10:01:03;;;;;;;8.70;7.95;;;;;;;28.46;99.57;101118.49;5114960;56;1140917;-66
2023/08/20 10:06:09;;;;;;;10.10;9.10;;;;;;;28.67;97.37;101122.19;5160743;55;1138786;-66
2023/08/20 10:11:15;;;;;;;19.17;9.38;;;;;;;28.79;96.37;101111.92;5178117;55;1140842;-66
2023/08/20 10:16:23;;;;;;;9.50;8.58;;;;;;;29.03;98.81;101115.98;5130698;55;1140889;-66
2023/08/20 10:21:29;;;;;;;13.15;8.30;;;;;;;29.29;96.26;101107.23;5202510;55;1138767;-66
2023/08/20 10:26:35;;;;;;;15.72;8.58;;;;;;;29.52;94.49;101108.73;5199327;55;1141093;-66
2023/08/20 10:31:47;;;;;;;9.05;8.18;;;;;;;29.69;95.26;101105.68;5190634;55;1140737;-67
2023/08/20 10:36:52;;;;;;;;;;;;;;;29.81;92.76;101098.08;5132194;55;1138829;-66
2023/08/20 10:42:17;;;;;;;9.75;7.72;;;;;;;29.87;92.07;101098.52;5188709;55;976174;-67
2023/08/20 10:47:25;;;;;;;8.13;7.42;;;;;;;30.12;91.83;101096.48;5167700;55;1136689;-66
2023/08/20 10:52:30;;;;;;;10.80;7.95;;;;;;;30.28;90.67;101096.34;5010363;57;1138532;-66
2023/08/20 10:57:37;;;;;;;10.45;7.92;;;;;;;30.46;88.34;101090.79;5273365;54;1140614;-66
2023/08/20 11:02:44;;;;;;;8.33;7.62;;;;;;;30.68;87.78;101086.98;5221530;54;1142041;-66
2023/08/20 11:07:51;;;;;;;8.00;7.20;;;;;;;30.85;85.00;101083.00;5249270;55;1139135;-68
2023/08/20 11:12:57;;;;;;;11.78;8.03;;;;;;;30.92;84.88;101080.42;5270551;54;1138720;-68
2023/08/20 11:18:03;;;;;;;7.50;6.80;;;;;;;31.06;82.33;101074.99;5253809;54;1140916;-67
2023/08/20 11:23:11;;;;;;;9.30;7.43;;;;;;;31.24;83.07;101073.20;5183095;54;1138956;-67
2023/08/20 11:28:17;;;;;;;11.80;7.65;;;;;;;31.37;80.58;101073.75;5204559;55;1138778;-67
2023/08/20 11:33:24;;;;;;;8.53;6.83;;;;;;;31.52;78.25;101071.02;5204482;54;1140837;-67
2023/08/20 11:38:30;;;;;;;7.60;6.85;;;;;;;31.45;78.71;101072.02;5169726;55;1138953;-66
2023/08/20 11:43:36;;;;;;;7.53;6.83;;;;;;;31.68;78.76;101065.64;5188908;55;1138669;-66
2023/08/20 11:49:09;;;;;;;7.66;6.90;;;;;;;31.88;79.76;101062.98;5217764;55;1138906;-67
2023/08/20 11:54:17;;;;;;;8.60;6.95;;;;;;;32.01;76.00;101062.67;5187504;55;1138813;-66
2023/08/20 11:59:23;;;;;;;12.25;7.12;;;;;;;32.06;74.67;101064.97;5182132;55;1138630;-67
2023/08/20 12:04:30;;;;;;;8.58;6.60;;;;;;;32.28;76.71;101055.48;5188992;56;1140703;-66
2023/08/20 12:09:37;;;;;;;8.33;7.08;;;;;;;32.52;74.06;101056.69;5199591;55;1138798;-67
2023/08/20 12:14:43;;;;;;;11.00;7.30;;;;;;;32.59;73.76;101051.85;5248510;54;1138792;-68
2023/08/20 12:19:49;;;;;;;7.90;7.10;;;;;;;32.57;73.24;101041.68;5263316;54;1140725;-67
2023/08/20 12:24:54;;;;;;;8.35;7.53;;;;;;;32.73;73.41;101033.47;5258416;54;1138594;-66
2023/08/20 12:30:00;;;;;;;8.00;7.40;;;;;;;32.84;73.89;101031.71;5137216;55;1138509;-67
2023/08/20 12:35:06;;;;;;;8.80;7.90;;;;;;;32.96;74.07;101034.32;5150847;55;1138729;-66
2023/08/20 12:40:13;;;;;;;8.15;7.35;;;;;;;33.11;73.95;101029.86;5164499;55;1138880;-66
2023/08/20 12:45:19;;;;;;;7.03;6.10;;;;;;;33.29;74.38;101030.65;5200940;55;1138706;-67
2023/08/20 12:50:25;;;;;;;7.33;6.67;;;;;;;33.33;71.49;101021.62;5200876;55;1138846;-66
2023/08/20 12:55:31;;;;;;;8.70;7.10;;;;;;;33.32;69.66;101022.71;5219487;55;1138854;-65
2023/08/20 13:00:36;;;;;;;8.60;6.80;;;;;;;33.27;69.45;101013.63;5169592;55;1138783;-67
2023/08/20 13:05:42;;;;;;;11.25;6.62;;;;;;;33.40;70.57;101015.95;5176964;55;1138975;-66
2023/08/20 13:10:52;;;;;;;7.00;6.00;;;;;;;33.36;68.58;101014.27;5220657;55;1140923;-67
2023/08/20 13:15:59;;;;;;;6.70;6.17;;;;;;;33.35;66.00;101020.83;5196677;55;1138544;-67
2023/08/20 13:21:05;;;;;;;7.65;5.42;;;;;;;33.44;68.88;101013.82;5171209;55;1138524;-66
2023/08/20 13:26:11;;;;;;;9.87;6.77;;;;;;;33.44;68.99;101006.13;5210523;54;1138640;-67
2023/08/20 13:31:16;;;;;;;6.90;6.30;;;;;;;33.43;67.44;101000.36;5209602;55;1138981;-66
2023/08/20 13:36:22;;;;;;;8.43;5.50;;;;;;;33.36;68.72;100997.81;5187612;55;1138777;-66
2023/08/20 13:41:28;;;;;;;10.55;5.75;;;;;;;33.46;66.83;100992.42;5258030;54;1138909;-67
2023/08/20 13:46:33;;;;;;;5.67;5.17;;;;;;;33.66;67.45;100987.69;5133220;55;1140913;-67
2023/08/20 13:51:39;;;;;;;8.28;5.40;;;;;;;33.77;66.10;100978.48;5182992;54;1138650;-67
2023/08/20 13:56:45;;;;;;;5.83;5.25;;;;;;;33.73;63.44;100977.88;5235278;54;1138818;-68
2023/08/20 14:01:51;;;;;;;7.58;5.40;;;;;;;33.82;65.16;100974.41;5262746;54;1138938;-67
2023/08/20 14:06:56;;;;;;;5.97;5.10;;;;;;;33.92;64.39;100970.12;5112903;55;1138633;-67
2023/08/20 14:12:02;;;;;;;7.43;5.40;;;;;;;33.80;63.22;100982.62;5258024;54;1145621;-67
2023/08/20 14:17:08;;;;;;;5.47;4.97;;;;;;;33.69;65.14;100987.71;5195435;55;1138824;-67
2023/08/20 14:22:14;;;;;;;5.97;5.47;;;;;;;33.51;64.39;100982.88;5218739;54;1138770;-66
2023/08/20 14:27:22;;;;;;;5.87;5.28;;;;;;;33.14;65.01;100984.66;5094011;56;1138675;-67
2023/08/20 14:32:27;;;;;;;5.17;4.67;;;;;;;32.87;66.83;100990.08;5182680;55;1138640;-66
2023/08/20 14:37:33;;;;;;;9.20;5.20;;;;;;;32.10;68.70;101019.58;5175395;55;1138672;-67
2023/08/20 14:42:39;;;;;;;10.43;5.97;;;;;;;30.67;80.98;101012.95;5169511;55;1138822;-66
2023/08/20 14:47:46;;;;;;;15.54;5.92;;;;;;;29.56;84.67;101025.45;5273795;55;1140803;-68
2023/08/20 14:52:54;;;;;;;5.53;5.08;;;;;;;29.01;90.67;101023.33;5262703;54;1140980;-67
2023/08/20 14:58:00;;;;;;;12.03;5.80;;;;;;;29.02;90.37;100997.23;5258404;54;1138721;-66
2023/08/20 15:03:06;;;;;;;9.15;5.40;;;;;;;29.45;92.54;101003.61;5112388;55;1140906;-67
2023/08/20 15:08:12;;;;;;;8.95;6.28;;;;;;;29.77;93.87;100996.00;5278892;54;1138795;-67
2023/08/20 15:13:17;;;;;;;6.62;5.60;;;;;;;30.03;94.15;100996.95;5113422;56;1138902;-67
2023/08/20 15:18:23;;;;;;;9.03;7.17;;;;;;;30.00;92.43;101002.34;5256984;54;1138773;-66
2023/08/20 15:23:30;;;;;;;9.48;7.12;;;;;;;29.99;92.80;101000.69;5254742;54;1138747;-65
2023/08/20 15:28:35;;;;;;;9.55;6.22;;;;;;;29.99;93.25;100997.95;5257276;54;1138683;-66
2023/08/20 15:33:41;;;;;;;11.53;6.50;;;;;;;30.09;96.12;100994.66;5160026;55;1138750;-67
2023/08/20 15:38:47;;;;;;;7.12;6.42;;;;;;;30.18;95.81;101001.42;5227350;54;1140877;-68
2023/08/20 15:43:53;;;;;;;14.15;5.78;;;;;;;30.18;94.75;101003.32;5184933;55;1138774;-67
2023/08/20 15:48:58;;;;;;;5.60;5.17;;;;;;;30.36;95.94;101004.05;5112262;56;1140982;-67
2023/08/20 15:54:04;;;;;;;9.68;5.87;;;;;;;30.53;94.98;100992.41;5169885;55;1138846;-67
2023/08/20 15:59:09;;;;;;;6.60;6.00;;;;;;;30.55;95.15;100991.67;5189091;55;1138576;-67
2023/08/20 16:04:15;;;;;;;8.50;5.93;;;;;;;30.61;95.07;100987.96;5168838;55;1138729;-67
2023/08/20 16:09:21;;;;;;;8.00;6.95;;;;;;;30.74;95.00;100992.63;5223864;54;1138798;-66
2023/08/20 16:14:27;;;;;;;6.58;5.80;;;;;;;30.82;95.13;101009.19;5279455;54;1138829;-67
2023/08/20 16:19:33;;;;;;;7.58;5.35;;;;;;;30.90;96.15;101022.99;5224671;54;1138955;-68
2023/08/20 16:24:38;;;;;;;6.87;5.28;;;;;;;30.80;94.29;101020.89;5109811;56;1139128;-67
2023/08/20 16:29:44;;;;;;;6.00;5.50;;;;;;;30.79;93.97;101028.78;5279534;54;1138794;-68
2023/08/20 16:34:49;;;;;;;8.48;6.80;;;;;;;30.67;92.38;101032.91;5084978;56;1139088;-67
2023/08/20 16:39:55;;;;;;;6.22;5.60;;;;;;;30.58;91.56;101043.04;5209058;55;1138672;-67
2023/08/20 16:45:01;;;;;;;6.60;6.00;;;;;;;30.37;90.86;101054.84;5189651;54;1139037;-67
2023/08/20 16:50:07;;;;;;;6.75;6.15;;;;;;;30.20;90.66;101060.69;5279543;54;1138858;-67
2023/08/20 16:55:12;;;;;;;7.70;6.35;;;;;;;30.03;91.75;101066.52;5112764;55;1138598;-67
2023/08/20 17:00:18;;;;;;;8.93;7.00;;;;;;;29.85;92.66;101061.93;5258186;55;1138680;-67
2023/08/20 17:05:24;;;;;;;12.78;6.67;;;;;;;29.79;94.19;101049.22;5112980;55;1138573;-67
2023/08/20 17:10:30;;;;;;;7.30;6.62;;;;;;;29.78;93.97;101044.02;5257878;54;1140854;-67
2023/08/20 17:15:36;;;;;;;7.55;6.72;;;;;;;29.80;93.95;101039.97;5234113;55;1138639;-66
2023/08/20 17:20:42;;;;;;;9.08;7.28;;;;;;;29.78;94.26;101032.59;5278552;54;1138787;-66
2023/08/20 17:25:48;;;;;;;7.97;7.30;;;;;;;29.68;94.82;101037.75;5258520;54;1138586;-68
2023/08/20 17:30:54;;;;;;;9.20;7.78;;;;;;;29.57;95.06;101044.83;5258624;54;1138715;-67
2023/08/20 17:36:03;;;;;;;11.18;7.70;;;;;;;29.41;95.94;101046.84;5212690;55;1138883;-69
2023/08/20 17:41:09;;;;;;;7.75;6.55;;;;;;;29.19;95.96;101044.25;5178447;55;1140651;-66
2023/08/20 17:46:14;;;;;;;11.60;6.55;;;;;;;29.19;97.00;101049.70;5169892;55;1138800;-67
2023/08/20 17:51:20;;;;;;;7.20;6.70;;;;;;;29.14;97.78;101049.05;5169107;55;1140866;-67
2023/08/20 17:56:25;;;;;;;9.95;7.28;;;;;;;28.81;98.90;101052.14;5189194;55;1138783;-67
2023/08/20 18:01:31;;;;;;;8.48;7.65;;;;;;;28.58;100.00;101056.83;5238863;55;1138927;-67
2023/08/20 18:06:37;;;;;;;7.42;6.72;;;;;;;28.47;100.00;101059.45;5240067;54;1140985;-67
2023/08/20 18:11:43;;;;;;;9.38;7.17;;;;;;;28.34;100.00;101065.33;5147868;55;1140683;-67
2023/08/20 18:16:50;;;;;;;8.78;7.52;;;;;;;28.28;100.00;101071.64;5276219;55;1140707;-67
2023/08/20 18:21:56;;;;;;;7.58;6.87;;;;;;;28.30;100.00;101079.59;5241398;54;1140748;-67
2023/08/20 18:27:01;;;;;;;8.70;7.83;;;;;;;28.17;100.00;101092.73;5113335;55;1140986;-67
2023/08/20 18:32:07;;;;;;;9.70;8.70;;;;;;;28.01;100.00;101102.27;5235333;54;1140649;-66
2023/08/20 18:37:13;;;;;;;12.78;11.55;;;;;;;27.88;100.00;101114.59;5083022;56;1141015;-66
2023/08/20 18:42:18;;;;;;;22.50;11.97;;;;;;;27.77;100.00;101121.25;5042839;56;1144897;-67
2023/08/20 18:47:24;;;;;;;12.65;10.48;;;;;;;27.66;100.00;101122.22;5037837;57;1145088;-67
2023/08/20 18:52:30;;;;;;;11.25;9.85;;;;;;;27.58;100.00;101140.66;5017918;57;1145011;-69
2023/08/20 18:57:35;;;;;;;10.25;9.13;;;;;;;27.44;100.00;101141.73;5149120;55;1142499;-67
2023/08/20 19:02:41;;;;;;;16.97;9.95;;;;;;;27.20;100.00;101148.69;5071196;55;1142744;-66
2023/08/20 19:07:52;;;;;;;15.38;9.88;;;;;;;27.08;100.00;101147.16;5103338;54;1142827;-67
2023/08/20 19:13:00;;;;;;;16.83;10.00;;;;;;;27.02;100.00;101160.23;5102584;55;1142994;-66
2023/08/20 19:18:06;;;;;;;14.62;9.42;;;;;;;27.00;100.00;101168.27;5099040;54;1145071;-66
2023/08/20 19:23:11;;;;;;;9.48;8.58;;;;;;;27.03;100.00;101168.70;5123486;55;1142863;-67
2023/08/20 19:28:17;;;;;;;10.60;9.60;;;;;;;27.11;100.00;101175.25;5097277;54;1140696;-67
2023/08/20 19:33:23;;;;;;;10.53;9.48;;;;;;;27.17;100.00;101184.44;5096449;55;1142806;-66
2023/08/20 19:38:29;;;;;;;10.30;9.30;;;;;;;27.21;100.00;101184.30;5078167;56;1143238;-66
2023/08/20 19:43:35;;;;;;;11.18;10.18;;;;;;;27.18;100.00;101183.39;5132588;55;1143099;-67
2023/08/20 19:48:40;;;;;;;10.72;9.73;;;;;;;27.20;100.00;101195.69;5040307;56;1145051;-67
2023/08/20 19:53:46;;;;;;;10.58;9.38;;;;;;;27.25;100.00;101190.99;5068834;56;1142826;-69
2023/08/20 19:58:52;;;;;;;15.28;9.65;;;;;;;27.36;100.00;101199.84;5047626;56;1142857;-68
2023/08/20 20:03:58;;;;;;;10.13;9.15;;;;;;;27.25;100.00;101199.98;5046518;56;1143323;-68
2023/08/20 20:09:04;;;;;;;13.03;10.98;;;;;;;27.15;100.00;101202.30;5086678;55;1143125;-67
2023/08/20 20:14:10;;;;;;;10.43;9.43;;;;;;;27.12;100.00;101192.38;5028744;56;1144921;-67
2023/08/20 20:19:16;;;;;;;11.83;10.68;;;;;;;26.83;100.00;101207.20;5026151;56;1142864;-66
2023/08/20 20:24:21;;;;;;;14.55;11.45;;;;;;;26.59;100.00;101208.11;5037767;56;1145040;-67
2023/08/20 20:29:27;;;;;;;12.68;11.15;;;;;;;26.49;100.00;101216.34;5086537;56;1145171;-67
2023/08/20 20:34:32;;;;;;;13.30;11.70;;;;;;;26.35;100.00;101221.44;5184542;54;1145134;-68
2023/08/20 20:39:39;;;;;;;25.52;12.15;;;;;;;26.29;100.00;101228.50;5188574;55;1144913;-66
2023/08/20 20:44:45;;;;;;;12.00;10.88;;;;;;;26.22;100.00;101231.18;5208103;54;1144843;-67
2023/08/20 20:49:50;;;;;;;13.90;12.28;;;;;;;26.13;100.00;101224.77;5110149;56;1144821;-67
2023/08/20 20:54:56;;;;;;;17.50;11.55;;;;;;;25.97;100.00;101225.16;5233499;54;1144943;-67
2023/08/20 21:00:02;;;;;;;13.22;11.90;;;;;;;25.92;100.00;101224.40;5113067;56;1145076;-67
2023/08/20 21:05:08;;;;;;;16.00;12.30;;;;;;;25.88;100.00;101229.90;5189512;55;1144994;-66
2023/08/20 21:10:14;;;;;;;14.35;12.85;;;;;;;25.72;100.00;101229.72;5040246;56;1145115;-66
2023/08/20 21:15:19;;;;;;;12.28;11.00;;;;;;;25.53;100.00;101232.60;5225150;54;1145157;-67
2023/08/20 21:20:25;;;;;;;16.82;11.88;;;;;;;25.44;100.00;101238.39;5186697;55;1144903;-66
2023/08/20 21:25:30;;;;;;;14.13;12.63;;;;;;;25.38;100.00;101245.42;5175549;55;1144963;-67
2023/08/20 21:30:36;;;;;;;14.65;12.93;;;;;;;25.24;100.00;101236.38;5257431;54;1144990;-67
2023/08/20 21:35:42;;;;;;;14.03;12.43;;;;;;;25.20;100.00;101242.41;5233408;55;1144885;-66
2023/08/20 21:40:48;;;;;;;14.33;12.95;;;;;;;25.08;100.00;101248.01;5168157;55;1144902;-67
2023/08/20 21:45:54;;;;;;;14.00;12.63;;;;;;;24.92;100.00;101255.86;5168610;55;1145196;-68
2023/08/20 21:50:59;;;;;;;15.03;13.13;;;;;;;24.83;100.00;101255.69;5189449;55;1145144;-67
2023/08/20 21:56:05;;;;;;;14.57;12.87;;;;;;;24.70;100.00;101258.27;5218871;54;1145065;-67
2023/08/20 22:01:13;;;;;;;14.27;11.57;;;;;;;24.49;100.00;101265.84;5200126;54;1144981;-67
2023/08/20 22:06:19;;;;;;;12.82;11.63;;;;;;;24.24;100.00;101260.48;5201991;54;1144970;-67
2023/08/20 22:11:25;;;;;;;15.20;12.90;;;;;;;24.24;100.00;101260.48;5185987;55;1144869;-67
2023/08/20 22:16:30;;;;;;;13.30;12.00;;;;;;;24.13;100.00;101275.30;5186810;55;1144852;-66
2023/08/20 22:21:36;;;;;;;13.88;11.88;;;;;;;24.08;100.00;101271.80;5212013;55;1145017;-66
2023/08/20 22:26:42;;;;;;;13.70;12.35;;;;;;;24.06;100.00;101273.85;5184514;54;1145274;-66
2023/08/20 22:31:48;;;;;;;16.77;11.65;;;;;;;24.03;100.00;101273.38;5168791;54;1144854;-67
2023/08/20 22:36:54;;;;;;;12.03;10.95;;;;;;;23.93;100.00;101272.34;5189592;55;1144961;-68
2023/08/20 22:42:00;;;;;;;11.53;10.33;;;;;;;23.92;100.00;101269.30;5176335;55;1144906;-67
2023/08/20 22:47:06;;;;;;;11.82;10.62;;;;;;;23.89;100.00;101260.22;5169102;56;1144852;-66